< < Back
Terminal Aerodrome Forecast


Current Version              Previous Versions:   1  2  3  4  5  6  7  8  9  

Terminal Aerodrome Forecast

609
FTUS42 KFFC 242322
TAFMCN
TAF
KMCN 242322Z 2500/2524 00000KT P6SM SCT250
     FM251500 07004KT P6SM SCT035
     FM251800 10007KT P6SM SCT050=



Latest METAR

815
SAUS80 KWBC 260200 RRB
MTRMCN
METAR KMCN 260153Z AUTO 13005KT 10SM CLR 24/18 A3005 RMK AO2 SLP170
T02390183


USA.gov is the U.S. government's official web portal to all federal, state and local government web resources and services.